sensor_id;sensor_type;location;lat;lon;timestamp;pressure;altitude;pressure_sealevel;temperature;humidity
68758;BME280;55747;51.998;4.466;2023-03-03T00:01:46;56486.13;;;-144.48;100.00
68758;BME280;55747;51.998;4.466;2023-03-03T00:04:11;56531.59;;;-144.48;100.00
68758;BME280;55747;51.998;4.466;2023-03-03T00:06:37;56523.34;;;-144.48;100.00
68758;BME280;55747;51.998;4.466;2023-03-03T00:09:02;56537.81;;;-144.48;100.00
68758;BME280;55747;51.998;4.466;2023-03-03T00:11:27;56521.25;;;-144.48;100.00
68758;BME280;55747;51.998;4.466;2023-03-03T00:13:55;56513.00;;;-144.48;100.00
68758;BME280;55747;51.998;4.466;2023-03-03T00:16:34;56523.34;;;-144.48;100.00
68758;BME280;55747;51.998;4.466;2023-03-03T00:19:14;56504.72;;;-144.48;100.00
68758;BME280;55747;51.998;4.466;2023-03-03T00:21:47;56517.13;;;-144.48;100.00
68758;BME280;55747;51.998;4.466;2023-03-03T00:26:39;56533.66;;;-144.48;100.00
68758;BME280;55747;51.998;4.466;2023-03-03T00:29:37;56539.88;;;-144.48;100.00
68758;BME280;55747;51.998;4.466;2023-03-03T00:34:36;56560.53;;;-144.48;100.00
68758;BME280;55747;51.998;4.466;2023-03-03T00:37:01;56537.81;;;-144.48;100.00
68758;BME280;55747;51.998;4.466;2023-03-03T00:39:30;56541.94;;;-144.48;100.00
68758;BME280;55747;51.998;4.466;2023-03-03T00:41:58;56500.59;;;-144.48;100.00
68758;BME280;55747;51.998;4.466;2023-03-03T00:50:25;56539.88;;;-144.48;100.00
68758;BME280;55747;51.998;4.466;2023-03-03T00:55:22;56513.00;;;-144.48;100.00
68758;BME280;55747;51.998;4.466;2023-03-03T00:57:47;56500.59;;;-144.48;100.00
68758;BME280;55747;51.998;4.466;2023-03-03T01:00:13;56504.72;;;-144.48;100.00
68758;BME280;55747;51.998;4.466;2023-03-03T01:02:38;56523.34;;;-144.48;100.00
68758;BME280;55747;51.998;4.466;2023-03-03T01:05:04;56504.72;;;-144.48;100.00
68758;BME280;55747;51.998;4.466;2023-03-03T01:07:29;56541.94;;;-144.48;100.00
68758;BME280;55747;51.998;4.466;2023-03-03T01:09:54;56539.88;;;-144.48;100.00
68758;BME280;55747;51.998;4.466;2023-03-03T01:12:20;56546.06;;;-144.48;100.00
68758;BME280;55747;51.998;4.466;2023-03-03T01:14:45;56515.06;;;-144.48;100.00
68758;BME280;55747;51.998;4.466;2023-03-03T01:17:13;56537.81;;;-144.48;100.00
68758;BME280;55747;51.998;4.466;2023-03-03T01:19:39;56541.94;;;-144.48;100.00
68758;BME280;55747;51.998;4.466;2023-03-03T01:22:04;56558.47;;;-144.48;100.00
68758;BME280;55747;51.998;4.466;2023-03-03T01:24:29;56515.06;;;-144.48;100.00
68758;BME280;55747;51.998;4.466;2023-03-03T01:26:54;56533.66;;;-144.48;100.00
68758;BME280;55747;51.998;4.466;2023-03-03T01:29:20;56541.94;;;-144.48;100.00
68758;BME280;55747;51.998;4.466;2023-03-03T01:31:45;56531.59;;;-144.48;100.00
68758;BME280;55747;51.998;4.466;2023-03-03T01:34:11;56531.59;;;-144.48;100.00
68758;BME280;55747;51.998;4.466;2023-03-03T01:36:36;56523.34;;;-144.48;100.00
68758;BME280;55747;51.998;4.466;2023-03-03T01:39:02;56533.66;;;-144.48;100.00
68758;BME280;55747;51.998;4.466;2023-03-03T01:41:28;56527.47;;;-144.48;100.00
68758;BME280;55747;51.998;4.466;2023-03-03T01:43:54;56535.75;;;-144.48;100.00
68758;BME280;55747;51.998;4.466;2023-03-03T01:48:49;56513.00;;;-144.48;100.00
68758;BME280;55747;51.998;4.466;2023-03-03T01:53:50;56492.31;;;-144.48;100.00
68758;BME280;55747;51.998;4.466;2023-03-03T01:56:17;56508.84;;;-144.48;100.00
68758;BME280;55747;51.998;4.466;2023-03-03T01:58:46;56533.66;;;-144.48;100.00
68758;BME280;55747;51.998;4.466;2023-03-03T02:01:16;56556.41;;;-144.48;100.00
68758;BME280;55747;51.998;4.466;2023-03-03T02:03:44;56502.66;;;-144.48;100.00
68758;BME280;55747;51.998;4.466;2023-03-03T02:06:13;56548.13;;;-144.48;100.00
68758;BME280;55747;51.998;4.466;2023-03-03T02:08:59;56529.53;;;-144.48;100.00
68758;BME280;55747;51.998;4.466;2023-03-03T02:11:30;56521.25;;;-144.48;100.00
68758;BME280;55747;51.998;4.466;2023-03-03T02:13:56;56492.31;;;-144.48;100.00
68758;BME280;55747;51.998;4.466;2023-03-03T02:16:21;56525.41;;;-144.48;100.00
68758;BME280;55747;51.998;4.466;2023-03-03T02:18:47;56556.41;;;-144.48;100.00
68758;BME280;55747;51.998;4.466;2023-03-03T02:21:18;56562.63;;;-144.48;100.00
68758;BME280;55747;51.998;4.466;2023-03-03T02:26:24;56529.53;;;-144.48;100.00
68758;BME280;55747;51.998;4.466;2023-03-03T02:28:50;56527.47;;;-144.48;100.00
68758;BME280;55747;51.998;4.466;2023-03-03T02:31:20;56500.59;;;-144.48;100.00
68758;BME280;55747;51.998;4.466;2023-03-03T02:33:48;56492.31;;;-144.48;100.00
68758;BME280;55747;51.998;4.466;2023-03-03T02:36:18;56504.72;;;-144.48;100.00
68758;BME280;55747;51.998;4.466;2023-03-03T02:41:40;56550.22;;;-144.48;100.00
68758;BME280;55747;51.998;4.466;2023-03-03T02:44:15;56533.66;;;-144.48;100.00
68758;BME280;55747;51.998;4.466;2023-03-03T02:46:43;56510.94;;;-144.48;100.00
68758;BME280;55747;51.998;4.466;2023-03-03T02:49:10;56533.66;;;-144.48;100.00
68758;BME280;55747;51.998;4.466;2023-03-03T02:51:36;56515.06;;;-144.48;100.00
68758;BME280;55747;51.998;4.466;2023-03-03T02:54:02;56554.34;;;-144.48;100.00
68758;BME280;55747;51.998;4.466;2023-03-03T02:56:31;56500.59;;;-144.48;100.00
68758;BME280;55747;51.998;4.466;2023-03-03T02:58:57;56515.06;;;-144.48;100.00
68758;BME280;55747;51.998;4.466;2023-03-03T03:01:22;56537.81;;;-144.48;100.00
68758;BME280;55747;51.998;4.466;2023-03-03T03:03:48;56531.59;;;-144.48;100.00
68758;BME280;55747;51.998;4.466;2023-03-03T03:06:13;56510.94;;;-144.48;100.00
68758;BME280;55747;51.998;4.466;2023-03-03T03:08:38;56535.75;;;-144.48;100.00
68758;BME280;55747;51.998;4.466;2023-03-03T03:11:04;56521.25;;;-144.48;100.00
68758;BME280;55747;51.998;4.466;2023-03-03T03:13:30;56552.28;;;-144.48;100.00
68758;BME280;55747;51.998;4.466;2023-03-03T03:15:56;56548.13;;;-144.48;100.00
68758;BME280;55747;51.998;4.466;2023-03-03T03:18:27;56552.28;;;-144.48;100.00
68758;BME280;55747;51.998;4.466;2023-03-03T03:20:52;56541.94;;;-144.48;100.00
68758;BME280;55747;51.998;4.466;2023-03-03T03:23:18;56552.28;;;-144.48;100.00
68758;BME280;55747;51.998;4.466;2023-03-03T03:25:46;56533.66;;;-144.48;100.00
68758;BME280;55747;51.998;4.466;2023-03-03T03:28:13;56535.75;;;-144.48;100.00
68758;BME280;55747;51.998;4.466;2023-03-03T03:30:39;56531.59;;;-144.48;100.00
68758;BME280;55747;51.998;4.466;2023-03-03T03:33:04;56531.59;;;-144.48;100.00
68758;BME280;55747;51.998;4.466;2023-03-03T03:35:32;56477.84;;;-144.48;100.00
68758;BME280;55747;51.998;4.466;2023-03-03T03:37:57;56535.75;;;-144.48;100.00
68758;BME280;55747;51.998;4.466;2023-03-03T03:40:23;56544.00;;;-144.48;100.00
68758;BME280;55747;51.998;4.466;2023-03-03T03:42:49;56531.59;;;-144.48;100.00
68758;BME280;55747;51.998;4.466;2023-03-03T03:45:15;56541.94;;;-144.48;100.00
68758;BME280;55747;51.998;4.466;2023-03-03T03:47:42;56523.34;;;-144.48;100.00
68758;BME280;55747;51.998;4.466;2023-03-03T03:50:08;56531.59;;;-144.48;100.00
68758;BME280;55747;51.998;4.466;2023-03-03T03:52:34;56513.00;;;-144.48;100.00
68758;BME280;55747;51.998;4.466;2023-03-03T03:54:59;56548.13;;;-144.48;100.00
68758;BME280;55747;51.998;4.466;2023-03-03T03:57:25;56552.28;;;-144.48;100.00
68758;BME280;55747;51.998;4.466;2023-03-03T03:59:50;56539.88;;;-144.48;100.00
68758;BME280;55747;51.998;4.466;2023-03-03T04:02:16;56523.34;;;-144.48;100.00
68758;BME280;55747;51.998;4.466;2023-03-03T04:04:41;56562.63;;;-144.48;100.00
68758;BME280;55747;51.998;4.466;2023-03-03T04:07:06;56541.94;;;-144.48;100.00
68758;BME280;55747;51.998;4.466;2023-03-03T04:09:32;56552.28;;;-144.48;100.00
68758;BME280;55747;51.998;4.466;2023-03-03T04:11:59;56544.00;;;-144.48;100.00
68758;BME280;55747;51.998;4.466;2023-03-03T04:14:24;56529.53;;;-144.48;100.00
68758;BME280;55747;51.998;4.466;2023-03-03T04:16:49;56560.53;;;-144.48;100.00
68758;BME280;55747;51.998;4.466;2023-03-03T04:19:15;56548.13;;;-144.48;100.00
68758;BME280;55747;51.998;4.466;2023-03-03T04:21:40;56527.47;;;-144.48;100.00
68758;BME280;55747;51.998;4.466;2023-03-03T04:24:05;56525.41;;;-144.48;100.00
68758;BME280;55747;51.998;4.466;2023-03-03T04:26:31;56544.00;;;-144.48;100.00
68758;BME280;55747;51.998;4.466;2023-03-03T04:28:57;56570.88;;;-144.48;100.00
68758;BME280;55747;51.998;4.466;2023-03-03T04:31:23;56554.34;;;-144.48;100.00
68758;BME280;55747;51.998;4.466;2023-03-03T04:33:50;56570.88;;;-144.48;100.00
68758;BME280;55747;51.998;4.466;2023-03-03T04:36:15;56560.53;;;-144.48;100.00
68758;BME280;55747;51.998;4.466;2023-03-03T04:38:41;56560.53;;;-144.48;100.00
68758;BME280;55747;51.998;4.466;2023-03-03T04:41:06;56558.47;;;-144.48;100.00
68758;BME280;55747;51.998;4.466;2023-03-03T04:43:32;56550.22;;;-144.48;100.00
68758;BME280;55747;51.998;4.466;2023-03-03T04:45:57;56568.81;;;-144.48;100.00
68758;BME280;55747;51.998;4.466;2023-03-03T04:48:22;56546.06;;;-144.48;100.00
68758;BME280;55747;51.998;4.466;2023-03-03T04:50:48;56558.47;;;-144.48;100.00
68758;BME280;55747;51.998;4.466;2023-03-03T04:53:13;56548.13;;;-144.48;100.00
68758;BME280;55747;51.998;4.466;2023-03-03T04:55:38;56544.00;;;-144.48;100.00
68758;BME280;55747;51.998;4.466;2023-03-03T04:58:04;56546.06;;;-144.48;100.00
68758;BME280;55747;51.998;4.466;2023-03-03T05:00:29;56564.69;;;-144.48;100.00
68758;BME280;55747;51.998;4.466;2023-03-03T05:02:55;56525.41;;;-144.48;100.00
68758;BME280;55747;51.998;4.466;2023-03-03T05:05:20;56544.00;;;-144.48;100.00
68758;BME280;55747;51.998;4.466;2023-03-03T05:07:45;56554.34;;;-144.48;100.00
68758;BME280;55747;51.998;4.466;2023-03-03T05:10:11;56556.41;;;-144.48;100.00
68758;BME280;55747;51.998;4.466;2023-03-03T05:12:36;56556.41;;;-144.48;100.00
68758;BME280;55747;51.998;4.466;2023-03-03T05:15:02;56541.94;;;-144.48;100.00
68758;BME280;55747;51.998;4.466;2023-03-03T05:17:27;56546.06;;;-144.48;100.00
68758;BME280;55747;51.998;4.466;2023-03-03T05:19:52;56537.81;;;-144.48;100.00
68758;BME280;55747;51.998;4.466;2023-03-03T05:22:18;56515.06;;;-144.48;100.00
68758;BME280;55747;51.998;4.466;2023-03-03T05:24:43;56572.94;;;-144.48;100.00
68758;BME280;55747;51.998;4.466;2023-03-03T05:27:13;56552.28;;;-144.48;100.00
68758;BME280;55747;51.998;4.466;2023-03-03T05:29:38;56539.88;;;-144.48;100.00
68758;BME280;55747;51.998;4.466;2023-03-03T05:32:04;56544.00;;;-144.48;100.00
68758;BME280;55747;51.998;4.466;2023-03-03T05:34:29;56537.81;;;-144.48;100.00
68758;BME280;55747;51.998;4.466;2023-03-03T05:36:54;56527.47;;;-144.48;100.00
68758;BME280;55747;51.998;4.466;2023-03-03T05:39:20;56546.06;;;-144.48;100.00
68758;BME280;55747;51.998;4.466;2023-03-03T05:41:45;56533.66;;;-144.48;100.00
68758;BME280;55747;51.998;4.466;2023-03-03T05:44:10;56535.75;;;-144.48;100.00
68758;BME280;55747;51.998;4.466;2023-03-03T05:46:36;56502.66;;;-144.48;100.00
68758;BME280;55747;51.998;4.466;2023-03-03T05:49:04;56550.22;;;-144.48;100.00
68758;BME280;55747;51.998;4.466;2023-03-03T05:51:29;56562.63;;;-144.48;100.00
68758;BME280;55747;51.998;4.466;2023-03-03T05:53:55;56562.63;;;-144.48;100.00
68758;BME280;55747;51.998;4.466;2023-03-03T05:56:20;56517.13;;;-144.48;100.00
68758;BME280;55747;51.998;4.466;2023-03-03T05:58:47;56562.63;;;-144.48;100.00
68758;BME280;55747;51.998;4.466;2023-03-03T06:01:12;56523.34;;;-144.48;100.00
68758;BME280;55747;51.998;4.466;2023-03-03T06:03:38;56544.00;;;-144.48;100.00
68758;BME280;55747;51.998;4.466;2023-03-03T06:06:03;56585.34;;;-144.48;100.00
68758;BME280;55747;51.998;4.466;2023-03-03T06:08:28;56550.22;;;-144.48;100.00
68758;BME280;55747;51.998;4.466;2023-03-03T06:10:56;56570.88;;;-144.48;100.00
68758;BME280;55747;51.998;4.466;2023-03-03T06:13:21;56539.88;;;-144.48;100.00
68758;BME280;55747;51.998;4.466;2023-03-03T06:15:47;56562.63;;;-144.48;100.00
68758;BME280;55747;51.998;4.466;2023-03-03T06:18:12;56552.28;;;-144.48;100.00
68758;BME280;55747;51.998;4.466;2023-03-03T06:20:40;56531.59;;;-144.48;100.00
68758;BME280;55747;51.998;4.466;2023-03-03T06:23:05;56560.53;;;-144.48;100.00
68758;BME280;55747;51.998;4.466;2023-03-03T06:25:31;56562.63;;;-144.48;100.00
68758;BME280;55747;51.998;4.466;2023-03-03T06:27:59;56595.69;;;-144.48;100.00
68758;BME280;55747;51.998;4.466;2023-03-03T06:30:25;56583.28;;;-144.48;100.00
68758;BME280;55747;51.998;4.466;2023-03-03T06:32:52;56579.16;;;-144.48;100.00
68758;BME280;55747;51.998;4.466;2023-03-03T06:35:18;56554.34;;;-144.48;100.00
68758;BME280;55747;51.998;4.466;2023-03-03T06:37:43;56572.94;;;-144.48;100.00
68758;BME280;55747;51.998;4.466;2023-03-03T06:40:09;56562.63;;;-144.48;100.00
68758;BME280;55747;51.998;4.466;2023-03-03T06:42:34;56560.53;;;-144.48;100.00
68758;BME280;55747;51.998;4.466;2023-03-03T06:44:59;56585.34;;;-144.48;100.00
68758;BME280;55747;51.998;4.466;2023-03-03T06:47:25;56558.47;;;-144.48;100.00
68758;BME280;55747;51.998;4.466;2023-03-03T06:49:50;56552.28;;;-144.48;100.00
68758;BME280;55747;51.998;4.466;2023-03-03T06:52:24;56554.34;;;-144.48;100.00
68758;BME280;55747;51.998;4.466;2023-03-03T06:54:53;56548.13;;;-144.48;100.00
68758;BME280;55747;51.998;4.466;2023-03-03T06:57:25;56533.66;;;-144.48;100.00
68758;BME280;55747;51.998;4.466;2023-03-03T06:59:53;56515.06;;;-144.48;100.00
68758;BME280;55747;51.998;4.466;2023-03-03T07:02:20;56564.69;;;-144.48;100.00
68758;BME280;55747;51.998;4.466;2023-03-03T07:04:46;56560.53;;;-144.48;100.00
68758;BME280;55747;51.998;4.466;2023-03-03T07:07:18;56562.63;;;-144.48;100.00
68758;BME280;55747;51.998;4.466;2023-03-03T07:09:46;56527.47;;;-144.48;100.00
68758;BME280;55747;51.998;4.466;2023-03-03T07:12:25;56587.41;;;-144.48;100.00
68758;BME280;55747;51.998;4.466;2023-03-03T07:14:55;56554.34;;;-144.48;100.00
68758;BME280;55747;51.998;4.466;2023-03-03T07:17:24;56570.88;;;-144.48;100.00
68758;BME280;55747;51.998;4.466;2023-03-03T07:20:00;56550.22;;;-144.48;100.00
68758;BME280;55747;51.998;4.466;2023-03-03T07:22:27;56515.06;;;-144.48;100.00
68758;BME280;55747;51.998;4.466;2023-03-03T07:24:54;56591.56;;;-144.48;100.00
68758;BME280;55747;51.998;4.466;2023-03-03T07:27:26;56560.53;;;-144.48;100.00
68758;BME280;55747;51.998;4.466;2023-03-03T07:29:54;56558.47;;;-144.48;100.00
68758;BME280;55747;51.998;4.466;2023-03-03T07:32:39;56552.28;;;-144.48;100.00
68758;BME280;55747;51.998;4.466;2023-03-03T07:35:40;56608.09;;;-144.48;100.00
68758;BME280;55747;51.998;4.466;2023-03-03T07:38:51;56591.56;;;-144.48;100.00
68758;BME280;55747;51.998;4.466;2023-03-03T07:41:17;56566.75;;;-144.48;100.00
68758;BME280;55747;51.998;4.466;2023-03-03T07:44:03;56533.66;;;-144.48;100.00
68758;BME280;55747;51.998;4.466;2023-03-03T07:46:48;56566.75;;;-144.48;100.00
68758;BME280;55747;51.998;4.466;2023-03-03T07:49:22;56550.22;;;-144.48;100.00
68758;BME280;55747;51.998;4.466;2023-03-03T07:51:56;56566.75;;;-144.48;100.00
68758;BME280;55747;51.998;4.466;2023-03-03T07:54:36;56548.13;;;-144.48;100.00
68758;BME280;55747;51.998;4.466;2023-03-03T07:59:46;56572.94;;;-144.48;100.00
68758;BME280;55747;51.998;4.466;2023-03-03T08:05:47;56597.75;;;-144.48;100.00
68758;BME280;55747;51.998;4.466;2023-03-03T08:08:32;56589.50;;;-144.48;100.00
68758;BME280;55747;51.998;4.466;2023-03-03T08:11:02;56570.88;;;-144.48;100.00
68758;BME280;55747;51.998;4.466;2023-03-03T08:18:38;56583.28;;;-144.48;100.00
68758;BME280;55747;51.998;4.466;2023-03-03T08:21:10;56533.66;;;-144.48;100.00
68758;BME280;55747;51.998;4.466;2023-03-03T08:23:37;56562.63;;;-144.48;100.00
68758;BME280;55747;51.998;4.466;2023-03-03T08:26:02;56564.69;;;-144.48;100.00
68758;BME280;55747;51.998;4.466;2023-03-03T08:28:27;56560.53;;;-144.48;100.00
68758;BME280;55747;51.998;4.466;2023-03-03T08:30:53;56572.94;;;-144.48;100.00
68758;BME280;55747;51.998;4.466;2023-03-03T08:33:18;56597.75;;;-144.48;100.00
68758;BME280;55747;51.998;4.466;2023-03-03T08:35:45;56581.22;;;-144.48;100.00
68758;BME280;55747;51.998;4.466;2023-03-03T08:38:12;56564.69;;;-144.48;100.00
68758;BME280;55747;51.998;4.466;2023-03-03T08:40:40;56533.66;;;-144.48;100.00
68758;BME280;55747;51.998;4.466;2023-03-03T08:43:07;56533.66;;;-144.48;100.00
68758;BME280;55747;51.998;4.466;2023-03-03T08:45:32;56554.34;;;-144.48;100.00
68758;BME280;55747;51.998;4.466;2023-03-03T08:47:58;56587.41;;;-144.48;100.00
68758;BME280;55747;51.998;4.466;2023-03-03T08:50:24;56554.34;;;-144.48;100.00
68758;BME280;55747;51.998;4.466;2023-03-03T08:52:51;56562.63;;;-144.48;100.00
68758;BME280;55747;51.998;4.466;2023-03-03T08:55:17;56544.00;;;-144.48;100.00
68758;BME280;55747;51.998;4.466;2023-03-03T08:57:42;56560.53;;;-144.48;100.00
68758;BME280;55747;51.998;4.466;2023-03-03T09:00:11;56562.63;;;-144.48;100.00
68758;BME280;55747;51.998;4.466;2023-03-03T09:02:37;56554.34;;;-144.48;100.00
68758;BME280;55747;51.998;4.466;2023-03-03T09:05:04;56572.94;;;-144.48;100.00
68758;BME280;55747;51.998;4.466;2023-03-03T09:07:30;56579.16;;;-144.48;100.00
68758;BME280;55747;51.998;4.466;2023-03-03T09:09:55;56560.53;;;-144.48;100.00
68758;BME280;55747;51.998;4.466;2023-03-03T09:12:33;56537.81;;;-144.48;100.00
68758;BME280;55747;51.998;4.466;2023-03-03T09:15:12;56562.63;;;-144.48;100.00
68758;BME280;55747;51.998;4.466;2023-03-03T09:17:39;56546.06;;;-144.48;100.00
68758;BME280;55747;51.998;4.466;2023-03-03T09:25:50;56550.22;;;-144.48;99.53
68758;BME280;55747;51.998;4.466;2023-03-03T09:28:30;56558.47;;;-144.48;100.00
68758;BME280;55747;51.998;4.466;2023-03-03T09:31:00;56556.41;;;-144.48;100.00
68758;BME280;55747;51.998;4.466;2023-03-03T09:33:41;56564.69;;;-144.48;98.24
68758;BME280;55747;51.998;4.466;2023-03-03T09:36:27;56572.94;;;-144.48;96.08
68758;BME280;55747;51.998;4.466;2023-03-03T09:38:55;56556.41;;;-144.48;94.41
68758;BME280;55747;51.998;4.466;2023-03-03T09:41:43;56558.47;;;-144.48;96.40
68758;BME280;55747;51.998;4.466;2023-03-03T09:49:31;56531.59;;;-144.48;95.41
68758;BME280;55747;51.998;4.466;2023-03-03T09:54:51;56556.41;;;-144.48;93.18
68758;BME280;55747;51.998;4.466;2023-03-03T09:57:29;56556.41;;;-144.48;88.98
68758;BME280;55747;51.998;4.466;2023-03-03T10:00:24;56529.53;;;-144.48;87.69
68758;BME280;55747;51.998;4.466;2023-03-03T10:03:07;56562.63;;;-144.48;85.03
68758;BME280;55747;51.998;4.466;2023-03-03T10:05:50;56558.47;;;-144.48;77.99
68758;BME280;55747;51.998;4.466;2023-03-03T10:13:56;56492.31;;;-144.48;67.35
68758;BME280;55747;51.998;4.466;2023-03-03T10:19:06;56521.25;;;-144.48;58.75
68758;BME280;55747;51.998;4.466;2023-03-03T10:25:08;56560.53;;;-144.48;56.86
68758;BME280;55747;51.998;4.466;2023-03-03T10:30:39;56533.66;;;-144.48;55.36
68758;BME280;55747;51.998;4.466;2023-03-03T10:33:22;56531.59;;;-144.48;54.90
68758;BME280;55747;51.998;4.466;2023-03-03T10:36:11;56515.06;;;-144.48;52.65
68758;BME280;55747;51.998;4.466;2023-03-03T10:42:05;56535.75;;;-144.48;52.93
68758;BME280;55747;51.998;4.466;2023-03-03T10:44:20;56513.00;;;-144.48;51.46
68758;BME280;55747;51.998;4.466;2023-03-03T10:49:52;56510.94;;;-144.48;52.31
68758;BME280;55747;51.998;4.466;2023-03-03T11:00:54;56550.22;;;-144.48;49.82
68758;BME280;55747;51.998;4.466;2023-03-03T11:04:07;56523.34;;;-144.48;51.30
68758;BME280;55747;51.998;4.466;2023-03-03T11:06:48;56510.94;;;-144.48;52.88
68758;BME280;55747;51.998;4.466;2023-03-03T11:12:36;56486.13;;;-144.48;47.39
68758;BME280;55747;51.998;4.466;2023-03-03T11:18:01;56525.41;;;-144.48;43.50
68758;BME280;55747;51.998;4.466;2023-03-03T11:20:55;56519.19;;;-144.48;43.95
68758;BME280;55747;51.998;4.466;2023-03-03T11:26:12;56504.72;;;-144.48;48.46
68758;BME280;55747;51.998;4.466;2023-03-03T11:31:48;56519.19;;;-144.48;51.23
68758;BME280;55747;51.998;4.466;2023-03-03T11:37:21;56527.47;;;-144.48;54.14
68758;BME280;55747;51.998;4.466;2023-03-03T11:39:53;56537.81;;;-144.48;55.36
68758;BME280;55747;51.998;4.466;2023-03-03T11:42:46;56519.19;;;-144.48;56.05
68758;BME280;55747;51.998;4.466;2023-03-03T11:46:02;56519.19;;;-144.48;57.80
68758;BME280;55747;51.998;4.466;2023-03-03T11:51:54;56519.19;;;-144.48;57.81
68758;BME280;55747;51.998;4.466;2023-03-03T12:08:56;56539.88;;;-144.48;52.14
68758;BME280;55747;51.998;4.466;2023-03-03T12:20:32;56525.41;;;-144.48;60.11
68758;BME280;55747;51.998;4.466;2023-03-03T12:25:50;56527.47;;;-144.48;61.33
68758;BME280;55747;51.998;4.466;2023-03-03T12:28:24;56560.53;;;-144.48;60.82
68758;BME280;55747;51.998;4.466;2023-03-03T12:31:15;56554.34;;;-144.48;60.22
68758;BME280;55747;51.998;4.466;2023-03-03T12:34:13;56539.88;;;-144.48;59.23
68758;BME280;55747;51.998;4.466;2023-03-03T12:37:12;56533.66;;;-144.48;59.36
68758;BME280;55747;51.998;4.466;2023-03-03T12:42:23;56519.19;;;-144.48;57.88
68758;BME280;55747;51.998;4.466;2023-03-03T12:45:22;56539.88;;;-144.48;51.78
68758;BME280;55747;51.998;4.466;2023-03-03T12:48:04;56515.06;;;-144.48;47.29
68758;BME280;55747;51.998;4.466;2023-03-03T12:51:01;56496.44;;;-144.48;46.10
68758;BME280;55747;51.998;4.466;2023-03-03T12:59:10;56546.06;;;-144.48;49.70
68758;BME280;55747;51.998;4.466;2023-03-03T13:04:31;56513.00;;;-144.48;50.26
68758;BME280;55747;51.998;4.466;2023-03-03T13:13:08;56544.00;;;-144.48;55.98
68758;BME280;55747;51.998;4.466;2023-03-03T13:15:43;56554.34;;;-144.48;55.70
68758;BME280;55747;51.998;4.466;2023-03-03T13:18:47;56548.13;;;-144.48;56.41
68758;BME280;55747;51.998;4.466;2023-03-03T13:21:24;56496.44;;;-144.48;57.24
68758;BME280;55747;51.998;4.466;2023-03-03T13:26:21;56529.53;;;-144.48;57.35
68758;BME280;55747;51.998;4.466;2023-03-03T13:31:38;56519.19;;;-144.48;55.56
68758;BME280;55747;51.998;4.466;2023-03-03T13:34:04;56515.06;;;-144.48;55.46
68758;BME280;55747;51.998;4.466;2023-03-03T13:37:30;56533.66;;;-144.48;54.38
68758;BME280;55747;51.998;4.466;2023-03-03T13:39:51;56523.34;;;-144.48;54.02
68758;BME280;55747;51.998;4.466;2023-03-03T13:42:32;56504.72;;;-144.48;52.34
68758;BME280;55747;51.998;4.466;2023-03-03T13:48:07;56531.59;;;-144.48;52.12
68758;BME280;55747;51.998;4.466;2023-03-03T13:50:46;56513.00;;;-144.48;52.66
68758;BME280;55747;51.998;4.466;2023-03-03T14:04:01;56521.25;;;-144.48;52.54
68758;BME280;55747;51.998;4.466;2023-03-03T14:06:30;56496.44;;;-144.48;53.25
68758;BME280;55747;51.998;4.466;2023-03-03T14:16:56;56515.06;;;-144.48;54.82
68758;BME280;55747;51.998;4.466;2023-03-03T14:19:39;56564.69;;;-144.48;54.78
68758;BME280;55747;51.998;4.466;2023-03-03T14:22:25;56525.41;;;-144.48;54.93
68758;BME280;55747;51.998;4.466;2023-03-03T14:25:03;56525.41;;;-144.48;55.84
68758;BME280;55747;51.998;4.466;2023-03-03T14:35:36;56517.13;;;-144.48;57.12
68758;BME280;55747;51.998;4.466;2023-03-03T14:38:17;56519.19;;;-144.48;57.14
68758;BME280;55747;51.998;4.466;2023-03-03T14:40:47;56513.00;;;-144.48;58.00
68758;BME280;55747;51.998;4.466;2023-03-03T14:43:22;56541.94;;;-144.48;57.82
68758;BME280;55747;51.998;4.466;2023-03-03T14:45:49;56523.34;;;-144.48;58.28
68758;BME280;55747;51.998;4.466;2023-03-03T14:48:17;56579.16;;;-144.48;58.78
68758;BME280;55747;51.998;4.466;2023-03-03T14:55:50;56519.19;;;-144.48;59.89
68758;BME280;55747;51.998;4.466;2023-03-03T14:58:34;56535.75;;;-144.48;59.53
68758;BME280;55747;51.998;4.466;2023-03-03T15:04:00;56498.53;;;-144.48;60.13
68758;BME280;55747;51.998;4.466;2023-03-03T15:06:47;56500.59;;;-144.48;60.17
68758;BME280;55747;51.998;4.466;2023-03-03T15:09:32;56562.63;;;-144.48;60.50
68758;BME280;55747;51.998;4.466;2023-03-03T15:12:16;56488.19;;;-144.48;60.36
68758;BME280;55747;51.998;4.466;2023-03-03T15:14:45;56521.25;;;-144.48;60.69
68758;BME280;55747;51.998;4.466;2023-03-03T15:17:35;56519.19;;;-144.48;60.47
68758;BME280;55747;51.998;4.466;2023-03-03T15:34:51;56523.34;;;-144.48;59.99
68758;BME280;55747;51.998;4.466;2023-03-03T15:37:26;56535.75;;;-144.48;60.92
68758;BME280;55747;51.998;4.466;2023-03-03T15:39:57;56548.13;;;-144.48;60.83
68758;BME280;55747;51.998;4.466;2023-03-03T15:42:36;56496.44;;;-144.48;60.88
68758;BME280;55747;51.998;4.466;2023-03-03T15:45:31;56515.06;;;-144.48;60.29
68758;BME280;55747;51.998;4.466;2023-03-03T15:53:40;56521.25;;;-144.48;59.18
68758;BME280;55747;51.998;4.466;2023-03-03T16:04:32;56523.34;;;-144.48;61.42
68758;BME280;55747;51.998;4.466;2023-03-03T16:07:01;56490.25;;;-144.48;61.52
68758;BME280;55747;51.998;4.466;2023-03-03T16:09:59;56562.63;;;-144.48;62.31
68758;BME280;55747;51.998;4.466;2023-03-03T16:12:34;56539.88;;;-144.48;62.46
68758;BME280;55747;51.998;4.466;2023-03-03T16:25:46;56510.94;;;-144.48;64.86
68758;BME280;55747;51.998;4.466;2023-03-03T16:28:22;56527.47;;;-144.48;65.56
68758;BME280;55747;51.998;4.466;2023-03-03T16:33:40;56529.53;;;-144.48;65.44
68758;BME280;55747;51.998;4.466;2023-03-03T16:38:43;56533.66;;;-144.48;65.76
68758;BME280;55747;51.998;4.466;2023-03-03T16:41:13;56515.06;;;-144.48;65.78